Latest Weather Observations for Lucas Heights (ANSTO)

IDN60801

Issued at 8:52 am EDT Tuesday 22 January 2019 (issued every 10 minutes, with the page automatically refreshed every 10 minutes)

About weather observations | Map of weather stations | Latest weather observations for NSW | Other Formats
Station Details ID: 066023 Name: LUCAS HEIGHTS (ANSTO) Lat: -34.05 Lon: 150.98 Height: 140.0 m
Data from the previous 72 hours. | See also: Recent months for locations in New South Wales
Date/Time
EDT
Temp
°C
App
Temp
°C
Dew
Point
°C
Rel
Hum
%
Delta-T
°C
Wind Press
QNH
hPa
Press
MSL
hPa
Rain since
9am
mm
Dir  Spd
km/h
Gust
km/h
Spd
kts
Gust
kts
22/08:30am 23.6 26.4 20.8 84 1.8 W 7 11 4 6 1015.9 - 0.0
22/08:15am 23.2 26.1 20.7 86 1.6 W 6 11 3 6 1015.8 - 0.0
22/08:00am 23.2 26.2 20.8 86 1.6 W 6 9 3 5 1015.7 - 0.0
22/07:45am 23.0 26.6 21.3 90 1.1 W 4 6 2 3 1015.6 - 0.0
22/07:30am 22.1 25.5 20.9 93 0.8 NW 4 6 2 3 1015.5 - 0.0
22/07:15am 20.9 23.7 19.7 93 0.8 NW 4 6 2 3 1015.5 - 0.0
22/07:00am 20.3 23.2 19.1 93 0.8 NW 2 6 1 3 1015.4 - 0.0
22/06:45am 19.9 22.6 18.7 93 0.8 N 2 6 1 3 1015.4 - 0.0
22/06:30am 19.8 22.1 18.5 92 0.8 NNE 4 7 2 4 1015.3 - 0.0
22/06:15am 19.8 22.1 18.5 92 0.8 NE 4 6 2 3 1015.2 - 0.0
22/06:00am 19.9 21.8 18.6 92 0.8 NE 6 7 3 4 1015.0 - 0.0
22/05:45am 20.1 22.1 18.8 92 0.8 NNE 6 7 3 4 1015.0 - 0.0
22/05:30am 20.1 22.1 18.7 92 0.9 NNE 6 7 3 4 1015.0 - 0.0
22/05:15am 20.1 22.1 18.7 92 0.9 NE 6 7 3 4 1014.9 - 0.0
22/05:00am 20.2 22.6 18.7 91 0.9 NE 4 6 2 3 1014.9 - 0.0
22/04:45am 20.4 22.8 18.9 91 0.9 NE 4 6 2 3 1014.9 - 0.0
22/04:30am 20.8 23.0 19.3 91 1.0 NNE 6 9 3 5 1014.9 - 0.0
22/04:15am 20.9 23.2 19.4 91 1.0 N 6 7 3 4 1014.9 - 0.0
22/04:00am 21.0 23.1 19.4 90 1.0 NNE 7 11 4 6 1015.1 - 0.0
22/03:45am 21.2 22.6 19.6 90 1.0 NNE 11 17 6 9 1015.2 - 0.0
22/03:30am 21.1 22.9 19.6 91 1.0 NNE 9 15 5 8 1015.3 - 0.0
22/03:15am 21.3 22.8 19.8 91 1.0 NNE 11 13 6 7 1015.5 - 0.0
22/03:00am 21.2 23.4 19.7 91 1.0 N 7 9 4 5 1015.6 - 0.0
22/02:45am 21.3 23.6 19.8 91 1.0 NNE 7 11 4 6 1015.7 - 0.0
22/02:30am 21.4 23.3 19.8 91 1.0 NE 9 15 5 8 1015.7 - 0.0
22/02:15am 21.3 23.2 19.8 91 1.0 NE 9 15 5 8 1015.9 - 0.0
22/02:00am 21.4 23.7 19.8 91 1.0 ENE 7 9 4 5 1016.0 - 0.0
22/01:45am 21.5 23.5 19.9 91 1.0 ENE 9 11 5 6 1015.9 - 0.0
22/01:30am 21.5 23.8 19.9 91 1.0 NE 7 11 4 6 1016.0 - 0.0
22/01:15am 21.5 23.9 19.7 89 1.2 NE 6 7 3 4 1016.1 - 0.0
22/01:00am 21.7 24.1 20.0 90 1.1 NE 7 9 4 5 1016.3 - 0.0
22/12:45am 21.9 24.0 20.1 89 1.2 ENE 9 13 5 7 1016.5 - 0.0
22/12:30am 22.0 24.2 20.3 90 1.1 ENE 9 11 5 6 1016.6 - 0.0
22/12:15am 22.1 24.7 20.4 90 1.1 ENE 7 11 4 6 1016.7 - 0.0
22/12:00am 22.2 24.4 20.5 90 1.1 ENE 9 11 5 6 1016.8 - 0.0
 
Date/Time
EDT
Temp
°C
App
Temp
°C
Dew
Point
°C
Rel
Hum
%
Delta-T
°C
Wind Press
QNH
hPa
Press
MSL
hPa
Rain since
9am
mm
Dir  Spd
km/h
Gust
km/h
Spd
kts
Gust
kts
21/11:45pm 22.2 24.5 20.6 91 1.0 NE 9 13 5 7 1016.9 - 0.0
21/11:30pm 22.2 25.1 20.6 91 1.0 ENE 6 7 3 4 1017.0 - 0.0
21/11:15pm 22.4 25.3 20.7 90 1.1 E 6 6 3 3 1017.1 - 0.0
21/11:00pm 22.5 25.5 20.9 91 1.0 ENE 6 9 3 5 1017.2 - 0.0
21/10:45pm 22.6 26.0 20.9 90 1.1 E 4 6 2 3 1017.3 - 0.0
21/10:30pm 22.6 26.0 21.0 91 1.1 E 4 6 2 3 1017.4 - 0.0
21/10:15pm 22.7 26.1 21.0 90 1.1 SE 4 6 2 3 1017.3 - 0.0
21/10:00pm 22.8 25.9 21.0 89 1.2 SSE 6 9 3 5 1017.2 - 0.0
21/09:45pm 22.9 25.8 21.0 89 1.2 SSE 7 11 4 6 1017.1 - 0.0
21/09:30pm 23.2 26.2 21.2 88 1.3 E 7 11 4 6 1016.8 - 0.0
21/09:15pm 23.3 26.3 21.2 88 1.4 NE 7 13 4 7 1016.6 - 0.0
21/09:00pm 23.3 26.3 21.3 88 1.3 NE 7 11 4 6 1016.4 - 0.0
21/08:45pm 23.3 26.3 21.2 88 1.4 NNE 7 13 4 7 1016.4 - 0.0
21/08:30pm 23.5 26.1 21.2 87 1.5 NNE 9 15 5 8 1016.3 - 0.0
21/08:15pm 23.8 26.9 21.4 86 1.6 E 7 11 4 6 1016.5 - 0.0
21/08:00pm 23.9 26.6 21.4 86 1.7 E 9 13 5 7 1016.3 - 0.0
21/07:45pm 24.1 26.8 21.4 85 1.8 NE 9 13 5 7 1016.3 - 0.0
21/07:30pm 24.3 27.0 21.4 84 1.9 NE 9 15 5 8 1016.2 - 0.0
21/07:15pm 24.4 27.5 21.5 84 1.9 NE 7 11 4 6 1016.2 - 0.0
21/07:00pm 24.6 27.0 21.5 83 2.1 NE 11 13 6 7 1016.1 - 0.0
21/06:45pm 24.9 28.0 21.5 81 2.3 ENE 7 11 4 6 1016.1 - 0.0
21/06:30pm 25.3 28.2 21.7 80 2.4 ENE 9 13 5 7 1016.0 - 0.0
21/06:15pm 25.0 27.9 21.7 82 2.2 ENE 9 13 5 7 1016.0 - 0.0
21/06:00pm 24.9 27.7 21.5 81 2.3 ENE 9 15 5 8 1016.0 - 0.0
21/05:45pm 24.9 27.2 21.3 80 2.4 ENE 11 15 6 8 1016.0 - 0.0
21/05:30pm 25.0 27.2 21.2 79 2.5 NE 11 15 6 8 1016.1 - 0.0
21/05:15pm 25.1 27.3 21.2 79 2.6 ENE 11 17 6 9 1016.2 - 0.0
21/05:00pm 25.0 27.9 21.1 79 2.6 ENE 7 11 4 6 1016.2 - 0.0
21/04:45pm 24.9 27.1 21.1 79 2.5 NE 11 15 6 8 1016.2 - 0.0
21/04:30pm 25.0 27.4 21.5 81 2.3 ENE 11 17 6 9 1016.3 - 0.0
21/04:15pm 25.0 27.3 21.4 80 2.4 NE 11 15 6 8 1016.4 - 0.0
21/04:00pm 24.8 27.6 21.5 82 2.2 ENE 9 15 5 8 1016.7 - 0.0
21/03:45pm 24.5 27.6 21.4 83 2.1 E 7 15 4 8 1016.9 - 0.0
21/03:30pm 24.5 26.9 21.6 84 1.9 ENE 11 17 6 9 1017.0 - 0.0
21/03:15pm 24.0 27.1 21.4 85 1.7 ENE 7 15 4 8 1017.2 - 0.0
21/03:00pm 23.7 26.9 21.2 86 1.7 ENE 6 9 3 5 1017.4 - 0.0
21/02:45pm 23.6 27.3 21.5 88 1.4 E 4 11 2 6 1017.5 - 0.0
21/02:30pm 22.7 25.7 20.9 89 1.2 SW 6 11 3 6 1017.6 - 0.0
21/02:15pm 22.5 24.7 20.4 88 1.4 WSW 9 15 5 8 1017.8 - 0.0
21/02:00pm 23.2 26.1 20.6 85 1.7 W 6 15 3 8 1017.9 - 0.0
21/01:45pm 23.5 26.0 21.0 86 1.6 E 9 13 5 7 1018.0 - 0.0
21/01:30pm 23.4 25.9 21.0 86 1.6 ENE 9 19 5 10 1018.1 - 0.0
21/01:15pm 23.3 24.7 21.0 87 1.5 ENE 15 20 8 11 1018.1 - 0.0
21/01:00pm 23.7 25.1 21.1 85 1.7 ENE 15 20 8 11 1018.2 - 0.0
21/12:45pm 24.2 26.9 21.4 84 1.9 E 9 17 5 9 1018.5 - 0.0
21/12:30pm 24.1 26.5 21.6 86 1.7 E 11 17 6 9 1018.7 - 0.0
21/12:15pm 23.8 26.4 21.2 85 1.7 E 9 19 5 10 1018.9 - 0.0
21/12:00pm 24.1 27.2 21.4 85 1.8 ENE 7 13 4 7 1019.0 - 0.0
21/11:45am 23.9 26.6 21.4 86 1.7 ENE 9 11 5 6 1019.1 - 0.0
21/11:30am 23.7 26.8 21.0 85 1.8 NE 6 11 3 6 1019.2 - 0.0
21/11:15am 23.9 26.6 20.7 82 2.1 NE 7 11 4 6 1019.2 - 0.0
21/11:00am 24.5 27.2 20.7 79 2.5 ENE 7 11 4 6 1019.2 - 0.0
21/10:45am 24.8 27.2 20.8 78 2.6 NE 9 15 5 8 1019.3 - 0.0
21/10:30am 24.7 27.6 21.0 80 2.4 ENE 7 13 4 7 1019.4 - 0.0
21/10:15am 24.2 27.1 21.0 82 2.1 ENE 7 11 4 6 1019.5 - 0.0
21/10:00am 23.8 26.8 20.9 84 1.9 ENE 6 7 3 4 1019.5 - 0.0
21/09:45am 23.4 26.4 20.8 85 1.7 E 6 7 3 4 1019.5 - 0.0
21/09:30am 23.0 25.9 20.7 87 1.5 ESE 6 7 3 4 1019.6 - 0.0
21/09:15am 22.7 25.7 20.8 89 1.2 E 6 7 3 4 1019.7 - 0.0
21/09:00am 22.4 25.4 20.8 91 1.0 E 6 9 3 5 1019.6 - 1.3
21/08:45am 22.0 24.7 20.6 92 0.9 E 7 15 4 8 1019.3 - 1.3
21/08:30am 21.5 23.6 20.2 92 0.8 E 9 15 5 8 1019.2 - 1.3
21/08:15am 21.2 22.8 19.9 92 0.8 E 11 19 6 10 1019.1 - 1.3
21/08:00am 21.1 22.3 19.9 93 0.8 E 13 20 7 11 1018.7 - 1.3
21/07:45am 21.0 22.5 19.8 93 0.8 E 11 19 6 10 1018.3 - 1.3
21/07:30am 20.8 22.3 19.7 93 0.7 ESE 11 17 6 9 1017.8 - 1.3
21/07:15am 20.8 21.1 19.6 93 0.8 SE 17 24 9 13 1017.6 - 1.3
21/07:00am 20.8 21.9 19.6 93 0.8 SE 13 19 7 10 1017.6 - 1.3
21/06:45am 20.8 22.3 19.7 93 0.7 SE 11 19 6 10 1017.6 - 1.3
21/06:30am 20.8 21.9 19.7 93 0.7 SE 13 19 7 10 1017.6 - 1.3
21/06:15am 21.0 22.2 19.8 93 0.8 ESE 13 19 7 10 1017.8 - 1.3
21/06:00am 21.0 22.9 19.8 93 0.8 SSE 9 11 5 6 1017.8 - 1.3
21/05:45am 21.1 23.4 19.9 93 0.8 SSE 7 11 4 6 1017.8 - 1.3
21/05:30am 21.2 23.8 20.0 93 0.8 E 6 7 3 4 1018.0 - 1.3
21/05:15am 21.2 23.8 20.0 93 0.8 ENE 6 11 3 6 1018.2 - 1.3
21/05:00am 21.3 23.4 20.1 93 0.8 ENE 9 13 5 7 1018.2 - 1.3
21/04:45am 21.2 23.2 20.0 93 0.8 N 9 15 5 8 1018.8 - 1.1
21/04:30am 21.2 23.7 19.9 92 0.8 N 6 9 3 5 1018.9 - 0.9
21/04:15am 21.2 23.8 20.0 93 0.8 NNW 6 7 3 4 1018.8 - 0.9
21/04:00am 21.2 23.7 19.9 92 0.8 WNW 6 7 3 4 1018.9 - 0.9
21/03:45am 21.1 24.0 19.9 93 0.8 NW 4 6 2 3 1019.0 - 0.9
21/03:30am 21.1 24.0 19.9 93 0.8 NNW 4 7 2 4 1019.4 - 0.9
21/03:15am 21.1 24.0 19.8 92 0.8 N 4 6 2 3 1019.7 - 0.9
21/03:00am 21.0 24.2 19.8 93 0.8 N 2 4 1 2 1019.9 - 0.8
21/02:45am 21.0 24.2 19.7 92 0.8 NNE 2 4 1 2 1020.0 - 0.6
21/02:30am 21.1 24.3 19.8 92 0.8 E 2 6 1 3 1020.1 - 0.4
21/02:15am 21.1 24.3 19.8 92 0.8 E 2 6 1 3 1020.2 - 0.2
21/02:00am 21.1 24.3 19.8 92 0.8 E 2 4 1 2 1020.1 - 0.2
21/01:45am 21.1 24.0 19.8 92 0.8 E 4 7 2 4 1019.9 - 0.2
21/01:30am 21.1 23.6 19.8 92 0.8 SE 6 9 3 5 1019.8 - 0.2
21/01:15am 21.0 23.2 19.5 91 1.0 SE 7 11 4 6 1019.9 - 0.2
21/01:00am 21.2 23.7 19.8 92 0.9 SE 6 7 3 4 1020.1 - 0.0
21/12:45am 21.2 23.7 19.8 92 0.9 ESE 6 7 3 4 1020.0 - 0.0
21/12:30am 21.2 24.1 19.8 92 0.9 E 4 7 2 4 1020.0 - 0.0
21/12:15am 21.2 23.5 19.8 92 0.9 ENE 7 13 4 7 1019.8 - 0.0
21/12:00am 21.2 23.1 19.7 91 1.0 E 9 15 5 8 1019.8 - 0.0
 
Date/Time
EDT
Temp
°C
App
Temp
°C
Dew
Point
°C
Rel
Hum
%
Delta-T
°C
Wind Press
QNH
hPa
Press
MSL
hPa
Rain since
9am
mm
Dir  Spd
km/h
Gust
km/h
Spd
kts
Gust
kts
20/11:45pm 21.2 22.6 19.6 90 1.0 E 11 20 6 11 1019.5 - 0.0
20/11:30pm 21.1 22.5 19.5 90 1.0 ESE 11 17 6 9 1019.7 - 0.0
20/11:15pm 21.1 22.8 19.4 90 1.1 ESE 9 15 5 8 1020.1 - 0.0
20/11:00pm 21.1 23.3 19.3 89 1.1 SE 6 7 3 4 1020.4 - 0.0
20/10:45pm 21.3 23.3 19.2 88 1.3 SE 7 11 4 6 1020.5 - 0.0
20/10:30pm 21.5 23.0 19.0 86 1.6 ESE 9 13 5 7 1020.3 - 0.0
20/10:15pm 22.0 23.5 18.9 82 2.0 ESE 9 13 5 7 1020.1 - 0.0
20/10:00pm 22.3 23.8 18.8 80 2.2 ESE 9 13 5 7 1020.0 - 0.0
20/09:45pm 22.4 23.8 18.7 79 2.3 ESE 9 15 5 8 1019.8 - 0.0
20/09:30pm 22.4 23.8 18.6 79 2.4 ESE 9 15 5 8 1019.6 - 0.0
20/09:15pm 22.3 24.2 18.5 79 2.4 ESE 6 11 3 6 1019.5 - 0.0
20/09:00pm 22.4 24.3 18.5 78 2.5 ESE 6 13 3 7 1019.4 - 0.0
20/08:45pm 22.5 24.2 18.5 78 2.5 E 7 15 4 8 1019.1 - 0.0
20/08:30pm 22.5 23.8 18.4 77 2.6 E 9 15 5 8 1018.8 - 0.0
20/08:15pm 22.6 23.9 18.5 77 2.6 E 9 17 5 9 1018.6 - 0.0
20/08:00pm 22.8 24.1 18.5 77 2.7 E 9 15 5 8 1018.5 - 0.0
20/07:45pm 23.0 24.4 18.6 76 2.8 ENE 9 13 5 7 1018.3 - 0.0
20/07:30pm 23.0 24.4 18.6 76 2.8 ENE 9 15 5 8 1018.2 - 0.0
20/07:15pm 23.0 24.3 18.5 76 2.8 E 9 15 5 8 1018.0 - 0.0
20/07:00pm 23.2 24.2 18.6 75 2.9 E 11 17 6 9 1017.9 - 0.0
20/06:45pm 23.3 24.3 18.6 75 3.0 ENE 11 15 6 8 1018.0 - 0.0
20/06:30pm 23.4 24.3 18.5 74 3.1 E 11 17 6 9 1017.7 - 0.0
20/06:15pm 23.6 24.6 18.7 74 3.1 E 11 15 6 8 1017.6 - 0.0
20/06:00pm 23.7 24.8 18.8 74 3.1 ENE 11 15 6 8 1017.4 - 0.0
20/05:45pm 23.8 24.9 18.9 74 3.1 ENE 11 17 6 9 1017.2 - 0.0
20/05:30pm 23.7 24.4 18.8 74 3.1 ENE 13 19 7 10 1017.3 - 0.0
20/05:15pm 23.9 25.0 18.9 73 3.2 E 11 19 6 10 1017.4 - 0.0
20/05:00pm 23.9 25.0 18.9 73 3.2 E 11 17 6 9 1017.6 - 0.0
20/04:45pm 24.0 25.1 18.8 72 3.3 ENE 11 17 6 9 1017.7 - 0.0
20/04:30pm 24.2 24.9 18.9 72 3.4 NE 13 19 7 10 1017.9 - 0.0
20/04:15pm 24.4 25.6 19.1 72 3.4 ENE 11 17 6 9 1018.0 - 0.0
20/04:00pm 24.3 25.5 19.0 72 3.4 ENE 11 15 6 8 1018.0 - 0.0
20/03:45pm 24.6 25.8 19.0 71 3.6 NE 11 17 6 9 1018.2 - 0.0
20/03:30pm 24.9 26.1 19.0 69 3.8 ENE 11 15 6 8 1018.4 - 0.0
20/03:15pm 25.0 26.1 18.9 69 3.9 NE 11 19 6 10 1018.5 - 0.0
20/03:00pm 25.1 25.8 18.8 68 4.0 NE 13 20 7 11 1018.6 - 0.0
20/02:45pm 25.1 26.3 19.1 69 3.9 ENE 11 19 6 10 1018.8 - 0.0
20/02:30pm 24.8 25.9 18.8 69 3.8 ENE 11 20 6 11 1019.0 - 0.0
20/02:15pm 24.6 26.0 18.6 69 3.8 NE 9 15 5 8 1019.3 - 0.0
20/02:00pm 24.5 25.8 18.4 69 3.9 NE 9 15 5 8 1019.5 - 0.0
20/01:45pm 24.4 25.7 18.4 69 3.8 NE 9 15 5 8 1019.7 - 0.0
20/01:30pm 24.3 26.0 18.4 69 3.7 NE 7 13 4 7 1019.9 - 0.0
20/01:15pm 23.9 25.4 18.1 70 3.7 ENE 7 15 4 8 1020.1 - 0.0
20/01:00pm 23.9 25.5 18.2 70 3.6 ENE 7 11 4 6 1020.2 - 0.0
20/12:45pm 23.6 25.2 17.8 70 3.6 ENE 6 11 3 6 1020.4 - 0.0
20/12:30pm 23.7 25.1 17.7 69 3.8 NE 7 13 4 7 1020.6 - 0.0
20/12:15pm 23.4 24.8 17.4 69 3.7 ESE 6 9 3 5 1020.8 - 0.0
20/12:00pm 23.3 24.7 17.4 69 3.7 E 6 13 3 7 1020.9 - 0.0
20/11:45am 22.9 24.7 17.3 70 3.5 ENE 4 11 2 6 1020.9 - 0.0
20/11:30am 22.7 24.1 17.3 71 3.3 E 6 9 3 5 1021.1 - 0.0
20/11:15am 22.4 23.8 17.3 73 3.2 ESE 6 11 3 6 1021.3 - 0.0
20/11:00am 22.3 24.1 17.3 73 3.1 ESE 4 9 2 5 1021.4 - 0.0
20/10:45am 22.2 23.7 17.5 74 2.9 SE 6 11 3 6 1021.6 - 0.0
20/10:30am 22.1 23.9 17.5 75 2.9 S 4 7 2 4 1021.6 - 0.0
20/10:15am 21.9 23.4 17.5 76 2.7 SSE 6 9 3 5 1021.6 - 0.0
20/10:00am 21.8 23.2 17.3 75 2.8 SE 6 11 3 6 1021.5 - 0.0
20/09:45am 21.9 23.1 17.4 75 2.8 SE 7 13 4 7 1021.4 - 0.0
20/09:30am 21.6 22.8 17.3 76 2.7 SSE 7 11 4 6 1021.4 - 0.0
20/09:15am 21.3 22.5 17.4 78 2.4 SSE 7 11 4 6 1021.4 - 0.0
20/09:00am 21.2 22.7 17.6 80 2.2 SSE 6 11 3 6 1021.5 - 0.0
20/08:45am 20.8 22.1 17.5 81 2.0 SE 7 11 4 6 1021.4 - 0.0
20/08:30am 20.7 22.2 17.5 82 2.0 SSE 6 11 3 6 1021.2 - 0.0
20/08:15am 20.5 21.7 17.4 82 1.9 SE 7 11 4 6 1021.0 - 0.0
20/08:00am 20.2 20.6 17.3 83 1.8 SSE 11 17 6 9 1020.8 - 0.0
20/07:45am 20.0 20.0 17.2 84 1.7 SSE 13 20 7 11 1020.8 - 0.0
20/07:30am 20.0 20.0 17.2 84 1.7 SSE 13 19 7 10 1020.6 - 0.0
20/07:15am 20.0 20.4 17.2 84 1.7 SSE 11 19 6 10 1020.5 - 0.0
20/07:00am 20.0 20.3 17.1 83 1.8 SSE 11 19 6 10 1020.6 - 0.0
20/06:45am 19.9 20.2 17.1 84 1.7 S 11 17 6 9 1020.4 - 0.0
20/06:30am 19.9 20.2 17.0 83 1.8 S 11 17 6 9 1020.2 - 0.0
20/06:15am 19.9 20.2 17.0 83 1.8 SSE 11 17 6 9 1020.1 - 0.0
20/06:00am 20.0 20.6 16.9 82 1.9 SSE 9 13 5 7 1020.0 - 0.0
20/05:45am 20.0 21.1 17.0 83 1.8 S 7 11 4 6 1019.9 - 0.0
20/05:30am 20.0 20.7 17.0 83 1.8 SSE 9 15 5 8 1019.8 - 0.0
20/05:15am 20.0 21.1 17.1 83 1.8 SSE 7 15 4 8 1019.8 - 0.0
20/05:00am 20.0 21.1 17.1 83 1.8 S 7 11 4 6 1019.7 - 0.0
20/04:45am 20.0 21.1 17.1 83 1.8 S 7 11 4 6 1019.7 - 0.0
20/04:30am 20.0 21.3 17.1 83 1.8 S 6 9 3 5 1019.7 - 0.0
20/04:15am 20.0 21.3 17.1 83 1.8 S 6 7 3 4 1019.6 - 0.0
20/04:00am 19.9 21.2 17.1 84 1.7 SSE 6 9 3 5 1019.6 - 0.0
20/03:45am 19.9 21.2 17.1 84 1.7 S 6 9 3 5 1019.6 - 0.0
20/03:30am 19.9 21.0 17.0 83 1.8 S 7 9 4 5 1019.6 - 0.0
20/03:15am 19.9 21.0 17.1 84 1.7 SSE 7 11 4 6 1019.7 - 0.0
20/03:00am 19.9 21.0 17.1 84 1.7 SSE 7 11 4 6 1020.0 - 0.0
20/02:45am 19.9 21.0 17.1 84 1.7 SSE 7 9 4 5 1020.1 - 0.0
20/02:30am 19.8 20.9 17.1 84 1.7 SSE 7 11 4 6 1020.3 - 0.0
20/02:15am 19.8 20.9 17.1 84 1.7 S 7 11 4 6 1020.5 - 0.0
20/02:00am 19.8 20.9 17.2 85 1.6 S 7 11 4 6 1020.7 - 0.0
20/01:45am 19.8 20.9 17.2 85 1.6 S 7 11 4 6 1020.9 - 0.0
20/01:30am 19.8 20.9 17.2 85 1.6 SSE 7 13 4 7 1021.0 - 0.0
20/01:15am 19.6 20.3 17.0 85 1.6 SSE 9 11 5 6 1021.2 - 0.0
20/01:00am 19.7 20.5 17.2 85 1.5 SSE 9 13 5 7 1021.5 - 0.0
20/12:45am 19.7 20.5 17.3 86 1.5 SSE 9 15 5 8 1021.6 - 0.0
20/12:30am 19.7 20.9 17.3 86 1.5 SSE 7 13 4 7 1021.7 - 0.0
20/12:15am 19.7 20.5 17.4 86 1.4 SSE 9 13 5 7 1021.7 - 0.0
20/12:00am 19.7 20.5 17.4 86 1.4 SSE 9 15 5 8 1021.8 - 0.0
 
Date/Time
EDT
Temp
°C
App
Temp
°C
Dew
Point
°C
Rel
Hum
%
Delta-T
°C
Wind Press
QNH
hPa
Press
MSL
hPa
Rain since
9am
mm
Dir  Spd
km/h
Gust
km/h
Spd
kts
Gust
kts
19/11:45pm 19.7 20.5 17.4 86 1.4 SSE 9 15 5 8 1021.7 - 0.0
19/11:30pm 19.7 20.2 17.4 86 1.4 SSE 11 19 6 10 1021.7 - 0.0
19/11:15pm 19.8 20.3 17.5 86 1.4 SSE 11 20 6 11 1021.7 - 0.0
19/11:00pm 19.8 20.3 17.5 86 1.4 SE 11 19 6 10 1021.6 - 0.0
19/10:45pm 19.9 19.2 17.4 85 1.5 SSE 17 22 9 12 1021.5 - 0.0
19/10:30pm 19.9 19.2 17.4 85 1.5 SSE 17 22 9 12 1021.4 - 0.0
19/10:15pm 19.9 19.3 17.5 86 1.5 SSE 17 24 9 13 1021.3 - 0.0
19/10:00pm 19.8 19.6 17.5 86 1.4 SSE 15 24 8 13 1021.2 - 0.0
19/09:45pm 19.8 19.6 17.5 86 1.4 SSE 15 20 8 11 1021.3 - 0.0
19/09:30pm 19.8 20.0 17.6 87 1.4 SSE 13 19 7 10 1021.3 - 0.0
19/09:15pm 19.7 19.9 17.7 88 1.2 SSE 13 17 7 9 1021.1 - 0.0
19/09:00pm 19.6 20.2 17.7 89 1.2 SE 11 17 6 9 1020.9 - 0.0
19/08:45pm 19.7 19.9 17.7 88 1.2 SE 13 19 7 10 1020.6 - 0.0
19/08:30pm 19.8 19.7 17.8 88 1.2 SSE 15 24 8 13 1020.3 - 0.0
19/08:15pm 20.2 20.1 17.8 86 1.5 SE 15 24 8 13 1020.0 - 0.0
19/08:00pm 20.6 19.7 17.8 84 1.7 SSE 19 30 10 16 1019.6 - 0.0
19/07:45pm 20.9 21.2 17.8 82 1.9 SSE 13 26 7 14 1019.3 - 0.0
19/07:30pm 20.9 20.0 17.7 82 2.0 SSE 19 26 10 14 1019.2 - 0.0
19/07:15pm 20.8 20.0 17.9 83 1.8 SSE 19 28 10 15 1019.0 - 0.0
19/07:00pm 20.8 20.0 18.1 84 1.7 SSE 19 28 10 15 1018.8 - 0.0
19/06:45pm 21.0 20.2 18.0 83 1.9 SE 19 30 10 16 1018.7 - 0.0
19/06:30pm 21.4 20.6 18.1 81 2.1 SSE 19 32 10 17 1018.4 - 0.0
19/06:15pm 21.4 20.4 18.0 81 2.1 SSE 20 32 11 17 1018.3 - 0.0
19/06:00pm 21.5 21.1 18.0 80 2.2 SSE 17 26 9 14 1018.2 - 0.0
19/05:45pm 21.5 20.2 18.1 81 2.1 SSE 22 33 12 18 1018.1 - 0.0
19/05:30pm 21.6 19.9 18.0 80 2.2 SSE 24 37 13 20 1018.0 - 0.0
19/05:15pm 22.2 20.5 18.2 78 2.5 SE 24 37 13 20 1018.0 - 0.0
19/05:00pm 22.2 20.6 18.3 78 2.5 SSE 24 35 13 19 1018.0 - 0.0
19/04:45pm 22.1 20.4 18.2 78 2.4 SSE 24 41 13 22 1018.0 - 0.0
19/04:30pm 22.2 20.2 18.2 78 2.5 SSE 26 37 14 20 1018.0 - 0.0
19/04:15pm 22.0 19.5 18.1 78 2.4 SSE 28 44 15 24 1018.0 - 0.0
19/04:00pm 22.2 19.0 18.2 78 2.5 SE 32 46 17 25 1018.1 - 0.0
19/03:45pm 22.8 19.6 18.2 75 2.9 SSE 32 43 17 23 1018.0 - 0.0
19/03:30pm 22.9 19.2 18.3 75 2.9 SE 35 44 19 24 1018.0 - 0.0
19/03:15pm 22.8 18.6 18.1 75 3.0 SE 37 48 20 26 1018.1 - 0.0
19/03:00pm 22.6 19.9 18.5 77 2.6 SSE 30 48 16 26 1018.1 - 0.0
19/02:45pm 22.1 18.7 18.2 78 2.4 SSE 33 43 18 23 1018.1 - 0.0
19/02:30pm 22.1 19.8 18.4 79 2.3 SE 28 46 15 25 1018.1 - 0.0
19/02:15pm 22.3 20.4 18.5 79 2.4 SSE 26 50 14 27 1018.0 - 0.0
19/02:00pm 22.2 19.0 18.5 79 2.3 SSE 33 50 18 27 1018.0 - 0.0
19/01:45pm 22.0 18.0 18.4 80 2.3 SSE 37 50 20 27 1018.0 - 0.0
19/01:30pm 22.1 18.4 18.4 79 2.3 SSE 35 46 19 25 1018.0 - 0.0
19/01:15pm 22.4 19.4 18.6 79 2.4 SSE 32 46 17 25 1017.9 - 0.0
19/01:00pm 22.2 20.8 18.7 80 2.2 SSE 24 41 13 22 1018.1 - 0.0
19/12:45pm 21.9 20.0 18.6 81 2.1 SSE 26 39 14 21 1018.0 - 0.0
19/12:30pm 22.1 19.9 18.7 81 2.2 SSE 28 48 15 26 1018.0 - 0.0
19/12:15pm 22.1 20.3 18.8 81 2.1 S 26 46 14 25 1018.0 - 0.0
19/12:00pm 22.2 21.2 18.9 81 2.1 S 22 43 12 23 1017.7 - 0.0
19/11:45am 22.2 20.1 18.9 81 2.1 SSE 28 50 15 27 1017.4 - 0.0
19/11:30am 22.4 20.0 19.1 81 2.1 SSE 30 52 16 28 1017.1 - 0.0
19/11:15am 22.7 20.0 19.3 81 2.2 SSE 32 50 17 27 1016.8 - 0.0
19/11:00am 22.9 20.4 19.7 82 2.1 SSE 32 52 17 28 1016.7 - 0.0
19/10:45am 24.0 23.0 20.4 80 2.4 S 26 46 14 25 1016.7 - 0.0
19/10:30am 24.8 24.7 20.7 78 2.7 S 22 39 12 21 1016.4 - 0.0
19/10:15am 25.5 25.0 20.7 75 3.2 S 24 37 13 20 1016.1 - 0.0
19/10:00am 25.4 24.7 20.3 73 3.3 SSE 24 39 13 21 1015.8 - 0.0
19/09:45am 25.7 26.5 20.6 73 3.4 SSE 17 30 9 16 1015.6 - 0.0
19/09:30am 25.2 27.5 20.6 75 3.0 SSE 9 19 5 10 1015.4 - 0.0
19/09:15am 24.9 27.5 20.4 76 2.9 SSE 7 13 4 7 1015.2 - 0.0
19/09:00am 24.8 27.4 20.4 76 2.9 S 7 19 4 10 1014.8 - 0.0

Other Formats:

Comma delimited format used in spreadsheet applications
http://www.bom.gov.au/fwo/IDN60801/IDN60801.95757.axf

JavaScript Object Notation format (JSON) in row-major order
http://www.bom.gov.au/fwo/IDN60801/IDN60801.95757.json